»·PEaware :: N555HP KLAX-KCRQ

N555HP :: KLAX-KCRQ

FLIGHT INFORMATION

Flight Status: Arrived
Operator: Privately registered:
United States
More flights under this callsign
Pilot: Adam R. (28816)
Aircraft: SOCATA TBM-900
(TBM9)
More flights by this aircraft type
Origin: KLAX Los Angeles Intl
United States
Destination: KCRQ McClellan-Palomar
United States
More flights between these airports :: More routes between these airports
Route: SLI8 SLI SLI171 ALBAS V25 PACIF V208 OCN
File this flight plan on PilotEdge
Remarks: TEC route LAXP40
Altitude:
(Current/Filed)
7,000ft
Speed:
(Current/Filed)
225kts
Departed: 01-Aug-20 07:52 PM
Arrived: 01-Aug-20 08:27 PM
Distance/Time
Traveled:
75nm/0:35
Distance/Time
To Go:
Arrived

Flight Plot

Page will automatically refresh every two minutes.


Map Options




Map Legend


Flown Route
Filed Route
Departure Airport
Arrival Airport
Navaid (VOR, NDB)
Fix

Horizontal Profiles

Position Reports

Time Latitude Longitude Heading Altitude Ground
Speed
01-Aug-20 19:29 33.932908 -118.399806 79 111ft 0kts
01-Aug-20 19:30 33.932908 -118.399806 79 111ft 0kts
01-Aug-20 19:31 33.932908 -118.399806 79 111ft 0kts
01-Aug-20 19:32 33.932908 -118.399806 79 111ft 0kts
01-Aug-20 19:33 33.932908 -118.399806 79 111ft 0kts
01-Aug-20 19:34 33.932908 -118.399806 79 111ft 0kts
01-Aug-20 19:35 33.932908 -118.399806 79 111ft 0kts
01-Aug-20 19:36 33.932908 -118.399806 79 111ft 0kts
01-Aug-20 19:37 33.932908 -118.399806 79 111ft 0kts
01-Aug-20 19:38 33.932908 -118.399806 79 111ft 0kts
01-Aug-20 19:39 33.932908 -118.399806 79 111ft 0kts
01-Aug-20 19:40 33.932908 -118.399806 79 111ft 0kts
01-Aug-20 19:41 33.932908 -118.399806 79 111ft 0kts
01-Aug-20 19:42 33.934349 -118.398166 10 108ft 9kts
01-Aug-20 19:43 33.935162 -118.392147 83 101ft 22kts
01-Aug-20 19:44 33.935881 -118.385127 83 98ft 19kts
01-Aug-20 19:46 33.936504 -118.382760 0 95ft 0kts
01-Aug-20 19:47 33.936504 -118.382760 0 95ft 0kts
01-Aug-20 19:48 33.936504 -118.382760 0 95ft 0kts
01-Aug-20 19:49 33.936504 -118.382760 0 95ft 0kts
01-Aug-20 19:50 33.936505 -118.382760 1 95ft 0kts
01-Aug-20 19:51 33.936741 -118.382782 354 95ft 6kts
01-Aug-20 19:52 33.935540 -118.399414 261 378ft 125kts
01-Aug-20 19:53 33.930660 -118.440190 247 2564ft 138kts
01-Aug-20 19:54 33.897649 -118.468699 216 4783ft 153kts
01-Aug-20 19:55 33.853023 -118.503648 212 5020ft 221kts
01-Aug-20 19:56 33.799083 -118.535079 169 5746ft 190kts
01-Aug-20 19:57 33.757252 -118.525661 172 8194ft 148kts
01-Aug-20 19:58 33.723702 -118.483103 125 9044ft 212kts
01-Aug-20 19:59 33.684775 -118.417585 125 9020ft 259kts
01-Aug-20 20:00 33.642510 -118.346089 124 9006ft 268kts
01-Aug-20 20:00 33.607096 -118.286144 129 8996ft 255kts
01-Aug-20 20:02 33.559167 -118.205498 129 9006ft 255kts
01-Aug-20 20:03 33.517359 -118.135140 128 9008ft 259kts
01-Aug-20 20:03 33.482337 -118.076285 128 9001ft 260kts
01-Aug-20 20:05 33.432811 -117.993263 128 9000ft 261kts
01-Aug-20 20:06 33.390394 -117.922301 128 9006ft 261kts
01-Aug-20 20:06 33.355350 -117.863757 128 9004ft 261kts
01-Aug-20 20:07 33.312861 -117.792675 128 9060ft 259kts
01-Aug-20 20:09 33.278721 -117.701119 99 8532ft 273kts
01-Aug-20 20:09 33.267457 -117.625852 99 7711ft 274kts
01-Aug-20 20:10 33.255344 -117.538230 96 6979ft 253kts
01-Aug-20 20:11 33.245447 -117.457084 96 6990ft 239kts
01-Aug-20 20:12 33.222021 -117.386878 93 6980ft 226kts
01-Aug-20 20:13 33.238001 -117.314380 71 6578ft 236kts
01-Aug-20 20:14 33.257550 -117.236596 71 5395ft 246kts
01-Aug-20 20:15 33.277358 -117.161489 71 4983ft 226kts
01-Aug-20 20:16 33.296773 -117.091197 71 4991ft 218kts
01-Aug-20 20:17 33.315266 -117.022128 71 5003ft 215kts
01-Aug-20 20:18 33.289208 -116.979335 190 5036ft 213kts
01-Aug-20 20:19 33.232190 -117.000678 210 5016ft 217kts
01-Aug-20 20:20 33.176941 -117.038443 211 4255ft 236kts
01-Aug-20 20:21 33.158793 -117.104569 256 3572ft 226kts
01-Aug-20 20:22 33.146247 -117.169327 257 2527ft 172kts
01-Aug-20 20:23 33.139628 -117.211914 260 1747ft 95kts
01-Aug-20 20:24 33.134346 -117.242575 257 870ft 85kts
01-Aug-20 20:25 33.129824 -117.270416 258 393ft 88kts
01-Aug-20 20:26 33.127592 -117.279514 136 308ft 5kts
01-Aug-20 20:27 33.127229 -117.279380 263 308ft 6kts

Navigation Log

Ident Type
Flight plan parsing failed, navigation log unavailable